Time;durP1;ratioP1;P1;durP2;ratioP2;P2;SDS_P1;SDS_P2;PMS_P1;PMS_P2;Temp;Humidity;BMP_temperature;BMP_pressure;BME280_temperature;BME280_humidity;BME280_pressure;Samples;Min_cycle;Max_cycle;Signal;HPM_P1;HPM_P2
2022/10/22 00:00:52;;;;;;;9.70;5.50;;;14.40;99.90;;;;;;5041772;28;20040;-74
2022/10/22 00:03:20;;;;;;;10.63;5.47;;;14.50;99.90;;;;;;5038887;28;20049;-74
2022/10/22 00:05:47;;;;;;;8.68;4.95;;;14.50;99.90;;;;;;5041423;28;20040;-73
2022/10/22 00:08:15;;;;;;;9.73;5.18;;;14.50;99.90;;;;;;5021502;28;20048;-73
2022/10/22 00:10:42;;;;;;;9.55;5.60;;;14.50;99.90;;;;;;5036194;28;20057;-74
2022/10/22 00:13:11;;;;;;;8.80;4.63;;;14.50;99.90;;;;;;5044739;28;20055;-74
2022/10/22 00:15:38;;;;;;;9.48;5.47;;;14.50;99.90;;;;;;5041694;28;20063;-74
2022/10/22 00:18:05;;;;;;;9.30;5.22;;;14.50;99.90;;;;;;5048927;28;20037;-74
2022/10/22 00:20:33;;;;;;;8.13;5.03;;;14.50;99.90;;;;;;5038063;28;20033;-74
2022/10/22 00:23:00;;;;;;;10.80;5.18;;;14.50;99.90;;;;;;5034925;28;20033;-73
2022/10/22 00:25:27;;;;;;;10.25;5.35;;;14.60;99.90;;;;;;5044437;28;20037;-74
2022/10/22 00:27:55;;;;;;;9.63;5.25;;;14.60;99.90;;;;;;5043251;28;20497;-73
2022/10/22 00:30:22;;;;;;;10.27;5.05;;;14.60;99.90;;;;;;5047862;28;20103;-72
2022/10/22 00:32:49;;;;;;;10.93;4.97;;;14.50;99.90;;;;;;5072517;28;20065;-73
2022/10/22 00:35:17;;;;;;;11.52;5.07;;;14.60;99.90;;;;;;5035055;28;20496;-71
2022/10/22 00:37:44;;;;;;;13.68;6.00;;;14.50;99.90;;;;;;5043965;28;20408;-72
2022/10/22 00:40:12;;;;;;;9.85;5.70;;;14.50;99.90;;;;;;5035164;28;20148;-72
2022/10/22 00:42:39;;;;;;;11.02;5.28;;;14.50;99.90;;;;;;5029852;28;20477;-73
2022/10/22 00:45:10;;;;;;;12.98;5.60;;;14.50;99.90;;;;;;5050215;28;20106;-73
2022/10/22 00:47:45;;;;;;;9.88;5.28;;;14.40;99.90;;;;;;5028071;28;20119;-72
2022/10/22 00:50:34;;;;;;;13.00;6.53;;;14.40;99.90;;;;;;5028119;28;20080;-73
2022/10/22 00:53:03;;;;;;;8.57;5.22;;;14.40;99.90;;;;;;5028575;28;20507;-73
2022/10/22 00:55:31;;;;;;;10.73;6.07;;;14.40;99.90;;;;;;5023408;28;20051;-73
2022/10/22 00:58:00;;;;;;;10.73;6.07;;;14.40;99.90;;;;;;5045124;28;20064;-73
2022/10/22 01:00:27;;;;;;;10.77;5.70;;;14.30;99.90;;;;;;5038634;28;20056;-74
2022/10/22 01:02:55;;;;;;;10.65;6.30;;;14.30;99.90;;;;;;5045602;28;20041;-72
2022/10/22 01:05:27;;;;;;;11.23;6.03;;;14.30;99.90;;;;;;5033980;28;20049;-72
2022/10/22 01:07:54;;;;;;;13.43;6.43;;;14.30;99.90;;;;;;5037097;28;20046;-74
2022/10/22 01:10:50;;;;;;;11.20;5.90;;;14.30;99.90;;;;;;5031937;28;20061;-72
2022/10/22 01:13:46;;;;;;;10.98;5.93;;;14.20;99.90;;;;;;5046259;28;20067;-73
2022/10/22 01:16:38;;;;;;;10.75;5.85;;;14.30;99.90;;;;;;5041935;28;20041;-71
2022/10/22 01:19:24;;;;;;;12.55;6.43;;;14.30;99.90;;;;;;5029490;28;20052;-71
2022/10/22 01:21:58;;;;;;;8.82;5.53;;;14.20;99.90;;;;;;5034701;28;20064;-71
2022/10/22 01:25:12;;;;;;;9.38;6.20;;;14.20;99.90;;;;;;5043679;28;20045;-71
2022/10/22 01:28:08;;;;;;;11.05;5.82;;;14.20;99.90;;;;;;5000452;28;20154;-72
2022/10/22 01:30:37;;;;;;;8.73;4.95;;;14.30;99.90;;;;;;4985718;28;20112;-73
2022/10/22 01:33:07;;;;;;;8.45;5.07;;;14.20;99.90;;;;;;5008775;28;20049;-71
2022/10/22 01:35:40;;;;;;;8.63;5.00;;;14.30;99.90;;;;;;5010421;28;20041;-71
2022/10/22 01:38:13;;;;;;;7.75;4.63;;;14.20;99.90;;;;;;4994569;28;20152;-71
2022/10/22 01:40:41;;;;;;;11.57;4.55;;;14.20;99.90;;;;;;4994286;28;20046;-70
2022/10/22 01:43:10;;;;;;;8.20;4.15;;;14.20;99.90;;;;;;4994105;28;20575;-71
2022/10/22 01:45:52;;;;;;;8.82;4.07;;;14.20;99.90;;;;;;5005623;28;20577;-71
2022/10/22 01:48:38;;;;;;;8.70;3.22;;;14.20;99.90;;;;;;4998773;28;20046;-72
2022/10/22 01:51:36;;;;;;;5.07;2.40;;;14.20;99.90;;;;;;4992985;28;20102;-71
2022/10/22 01:54:13;;;;;;;5.82;2.20;;;14.20;99.90;;;;;;5010743;28;20129;-70
2022/10/22 01:57:21;;;;;;;6.07;2.35;;;14.20;99.90;;;;;;4978309;28;20054;-72
2022/10/22 01:59:57;;;;;;;6.00;2.40;;;14.10;99.90;;;;;;4981865;28;20096;-71
2022/10/22 02:02:33;;;;;;;4.72;2.03;;;14.10;99.90;;;;;;5019479;28;20048;-71
2022/10/22 02:05:21;;;;;;;4.30;2.03;;;14.00;99.90;;;;;;5067860;28;20110;-72
2022/10/22 02:07:58;;;;;;;3.65;1.90;;;14.00;99.90;;;;;;5045744;28;20045;-72
2022/10/22 02:10:27;;;;;;;3.65;1.90;;;14.00;99.90;;;;;;5032028;28;20052;-71
2022/10/22 02:12:57;;;;;;;3.22;1.40;;;14.00;99.90;;;;;;5046653;28;20041;-71
2022/10/22 02:15:27;;;;;;;4.53;1.75;;;13.90;99.90;;;;;;5066028;28;20033;-71
2022/10/22 02:17:58;;;;;;;3.22;1.50;;;13.90;99.90;;;;;;5060649;28;20439;-73
2022/10/22 02:20:33;;;;;;;3.00;1.55;;;13.90;99.90;;;;;;5051109;28;20052;-73
2022/10/22 02:23:02;;;;;;;5.80;1.80;;;13.90;99.90;;;;;;5040008;28;20041;-71
2022/10/22 02:25:39;;;;;;;2.40;1.40;;;13.90;99.90;;;;;;5051623;28;20510;-73
2022/10/22 02:28:15;;;;;;;3.95;1.77;;;13.90;99.90;;;;;;5047506;28;20452;-72
2022/10/22 02:30:47;;;;;;;3.95;1.70;;;13.80;99.90;;;;;;5065408;28;20506;-71
2022/10/22 02:33:20;;;;;;;2.90;1.42;;;13.80;99.90;;;;;;5051550;28;20053;-71
2022/10/22 02:35:50;;;;;;;4.00;1.67;;;13.80;99.90;;;;;;5032601;28;20049;-72
2022/10/22 02:38:18;;;;;;;3.30;1.60;;;13.70;99.90;;;;;;5041668;28;20419;-73
2022/10/22 02:40:46;;;;;;;4.28;1.50;;;13.70;99.90;;;;;;5051147;28;20045;-72
2022/10/22 02:43:13;;;;;;;6.78;1.80;;;13.70;99.90;;;;;;5052128;28;20037;-72
2022/10/22 02:45:40;;;;;;;5.07;1.88;;;13.60;99.90;;;;;;5060780;28;20048;-72
2022/10/22 02:48:08;;;;;;;3.97;1.95;;;13.60;99.90;;;;;;5050457;28;20126;-72
2022/10/22 02:50:35;;;;;;;3.17;1.77;;;13.60;99.90;;;;;;5045112;28;20033;-73
2022/10/22 02:53:02;;;;;;;5.85;1.77;;;13.60;99.90;;;;;;5044002;28;20388;-72
2022/10/22 02:55:30;;;;;;;4.22;1.77;;;13.60;99.90;;;;;;5030517;28;20526;-72
2022/10/22 02:57:57;;;;;;;4.75;2.50;;;13.60;99.90;;;;;;5061669;28;20511;-72
2022/10/22 03:00:24;;;;;;;6.45;1.95;;;13.60;99.90;;;;;;5045776;28;20045;-73
2022/10/22 03:02:52;;;;;;;4.88;1.92;;;13.60;99.90;;;;;;5035060;28;20041;-73
2022/10/22 03:05:19;;;;;;;3.97;1.80;;;13.60;99.90;;;;;;5046878;28;20053;-73
2022/10/22 03:07:46;;;;;;;8.65;2.60;;;13.60;99.90;;;;;;5050121;28;20048;-73
2022/10/22 03:10:14;;;;;;;6.55;2.00;;;13.60;99.90;;;;;;5046229;28;20045;-72
2022/10/22 03:12:41;;;;;;;5.97;2.30;;;13.60;99.90;;;;;;5045313;28;20053;-73
2022/10/22 03:15:08;;;;;;;4.15;2.08;;;13.60;99.90;;;;;;5047498;28;20502;-73
2022/10/22 03:17:36;;;;;;;3.95;2.20;;;13.60;99.90;;;;;;5041910;28;20045;-73
2022/10/22 03:20:04;;;;;;;5.18;2.42;;;13.60;99.90;;;;;;5050769;28;20086;-71
2022/10/22 03:22:32;;;;;;;6.82;2.50;;;13.60;99.90;;;;;;5040001;28;20487;-72
2022/10/22 03:25:06;;;;;;;5.95;2.40;;;13.60;99.90;;;;;;5029354;28;20133;-72
2022/10/22 03:27:36;;;;;;;5.20;2.25;;;13.60;99.90;;;;;;5048966;28;20415;-72
2022/10/22 03:30:04;;;;;;;5.20;2.60;;;13.60;99.90;;;;;;5041924;28;20538;-72
2022/10/22 03:32:32;;;;;;;5.70;2.65;;;13.60;99.90;;;;;;5048382;28;20115;-73
2022/10/22 03:34:59;;;;;;;8.43;2.90;;;13.60;99.90;;;;;;5040238;28;20067;-72
2022/10/22 03:37:27;;;;;;;5.20;2.22;;;13.60;99.90;;;;;;5055913;28;20185;-73
2022/10/22 03:39:54;;;;;;;8.45;2.42;;;13.60;99.90;;;;;;5047622;28;20041;-72
2022/10/22 03:42:22;;;;;;;5.47;2.88;;;13.70;99.90;;;;;;5081567;28;20041;-70
2022/10/22 03:44:50;;;;;;;8.25;2.60;;;13.60;99.90;;;;;;5051183;28;20405;-72
2022/10/22 03:47:17;;;;;;;5.97;2.20;;;13.60;99.90;;;;;;5058127;28;20067;-72
2022/10/22 03:49:45;;;;;;;5.75;2.53;;;13.60;99.90;;;;;;5028293;28;20117;-73
2022/10/22 03:52:13;;;;;;;7.82;3.00;;;13.60;99.90;;;;;;5052088;28;20076;-71
2022/10/22 03:54:41;;;;;;;5.90;2.58;;;13.60;99.90;;;;;;5045344;28;20048;-71
2022/10/22 03:57:09;;;;;;;8.35;2.28;;;13.70;99.90;;;;;;5041421;28;20045;-71
2022/10/22 03:59:39;;;;;;;5.05;2.65;;;13.70;99.90;;;;;;5043408;28;20056;-72
2022/10/22 04:02:07;;;;;;;6.65;2.30;;;13.60;99.90;;;;;;5046101;28;20565;-72
2022/10/22 04:04:35;;;;;;;5.72;2.80;;;13.60;99.90;;;;;;5043022;28;20056;-71
2022/10/22 04:07:04;;;;;;;5.88;2.70;;;13.60;99.90;;;;;;5057126;28;20502;-71
2022/10/22 04:09:32;;;;;;;4.85;2.00;;;13.60;99.90;;;;;;5028606;28;20428;-72
2022/10/22 04:12:00;;;;;;;5.63;2.85;;;13.60;99.90;;;;;;5066080;28;20045;-71
2022/10/22 04:14:28;;;;;;;6.82;2.28;;;13.60;99.90;;;;;;5044228;28;20061;-72
2022/10/22 04:16:55;;;;;;;4.15;2.17;;;13.60;99.90;;;;;;5046064;28;20045;-71
2022/10/22 04:19:22;;;;;;;6.03;2.15;;;13.60;99.90;;;;;;5047119;28;20044;-72
2022/10/22 04:21:50;;;;;;;7.60;2.75;;;13.60;99.90;;;;;;5042102;28;20052;-71
2022/10/22 04:24:17;;;;;;;6.10;2.28;;;13.60;99.90;;;;;;5045347;28;20049;-73
2022/10/22 04:26:44;;;;;;;4.50;1.92;;;13.60;99.90;;;;;;5046460;28;20040;-71
2022/10/22 04:29:11;;;;;;;4.50;2.10;;;13.50;99.90;;;;;;5044214;28;20057;-72
2022/10/22 04:31:42;;;;;;;4.68;2.20;;;13.50;99.90;;;;;;5044090;28;20056;-71
2022/10/22 04:34:10;;;;;;;5.40;2.17;;;13.50;99.90;;;;;;5046744;28;20496;-72
2022/10/22 04:36:37;;;;;;;6.93;2.33;;;13.50;99.90;;;;;;5012010;28;20060;-72
2022/10/22 04:39:05;;;;;;;6.18;2.03;;;13.50;99.90;;;;;;5030086;28;20052;-71
2022/10/22 04:41:35;;;;;;;4.25;2.20;;;13.50;99.90;;;;;;5036260;28;20037;-72
2022/10/22 04:44:04;;;;;;;6.30;2.65;;;13.50;99.90;;;;;;5021193;28;20407;-72
2022/10/22 04:46:33;;;;;;;4.63;2.17;;;13.50;99.90;;;;;;5056757;28;20102;-72
2022/10/22 04:49:02;;;;;;;5.72;2.38;;;13.50;99.90;;;;;;5042149;28;20051;-72
2022/10/22 04:51:31;;;;;;;3.38;1.90;;;13.50;99.90;;;;;;5049835;28;20048;-72
2022/10/22 04:53:58;;;;;;;4.38;2.00;;;13.50;99.90;;;;;;5046615;28;20041;-72
2022/10/22 04:56:28;;;;;;;7.50;2.38;;;13.50;99.90;;;;;;5033210;28;20041;-72
2022/10/22 04:59:02;;;;;;;4.68;1.92;;;13.50;99.90;;;;;;5044002;28;20076;-72
2022/10/22 05:01:35;;;;;;;3.85;1.90;;;13.50;99.90;;;;;;5039564;28;20106;-74
2022/10/22 05:04:15;;;;;;;5.43;2.20;;;13.50;99.90;;;;;;5042846;28;20053;-71
2022/10/22 05:06:43;;;;;;;5.70;1.73;;;13.50;99.90;;;;;;5042545;28;20037;-72
2022/10/22 05:09:16;;;;;;;4.95;1.98;;;13.50;99.90;;;;;;5077778;28;20052;-72
2022/10/22 05:11:47;;;;;;;3.47;1.70;;;13.50;99.90;;;;;;5048615;28;20077;-71
2022/10/22 05:14:23;;;;;;;7.00;1.65;;;13.50;99.90;;;;;;5048472;28;20045;-72
2022/10/22 05:16:51;;;;;;;5.13;1.73;;;13.50;99.90;;;;;;5045967;28;20495;-72
2022/10/22 05:19:22;;;;;;;4.05;1.90;;;13.50;99.90;;;;;;5039308;28;20045;-72
2022/10/22 05:21:52;;;;;;;4.35;1.60;;;13.50;99.90;;;;;;5046756;28;20068;-71
2022/10/22 05:24:19;;;;;;;4.68;1.85;;;13.40;99.90;;;;;;5034251;28;20055;-72
2022/10/22 05:26:54;;;;;;;4.22;1.67;;;13.40;99.90;;;;;;5049279;28;20052;-72
2022/10/22 05:29:22;;;;;;;2.97;1.67;;;13.40;99.90;;;;;;5044806;28;20056;-72
2022/10/22 05:31:50;;;;;;;5.50;2.15;;;13.30;99.90;;;;;;5039917;28;20045;-70
2022/10/22 05:34:17;;;;;;;2.78;1.67;;;13.30;99.90;;;;;;5044974;28;20069;-72
2022/10/22 05:36:45;;;;;;;7.00;2.28;;;13.20;99.90;;;;;;5048071;28;20049;-71
2022/10/22 05:39:12;;;;;;;3.95;2.00;;;13.20;99.90;;;;;;5045683;28;20095;-72
2022/10/22 05:41:40;;;;;;;5.15;2.53;;;13.20;99.90;;;;;;5035783;28;20037;-72
2022/10/22 05:44:10;;;;;;;5.43;2.40;;;13.10;99.90;;;;;;5044200;28;20052;-72
2022/10/22 05:46:37;;;;;;;5.45;2.60;;;13.10;99.90;;;;;;5052022;28;20045;-71
2022/10/22 05:49:06;;;;;;;4.88;2.30;;;13.00;99.90;;;;;;5046699;28;20047;-71
2022/10/22 05:51:35;;;;;;;5.05;2.65;;;13.00;99.90;;;;;;5042484;28;20068;-71
2022/10/22 05:54:05;;;;;;;5.22;3.05;;;13.00;99.90;;;;;;5037908;28;20077;-72
2022/10/22 05:56:33;;;;;;;8.48;2.80;;;13.00;99.90;;;;;;5027792;28;20471;-73
2022/10/22 05:59:00;;;;;;;5.35;2.70;;;12.90;99.90;;;;;;5052202;28;20107;-73
2022/10/22 06:01:30;;;;;;;5.18;2.97;;;12.90;99.90;;;;;;5048829;28;20119;-72
2022/10/22 06:04:01;;;;;;;7.00;3.53;;;12.90;99.90;;;;;;5048089;28;20084;-72
2022/10/22 06:06:36;;;;;;;6.18;3.67;;;12.90;99.90;;;;;;5053202;28;20033;-72
2022/10/22 06:09:17;;;;;;;7.65;3.58;;;12.90;99.90;;;;;;5047832;28;20044;-72
2022/10/22 06:11:46;;;;;;;7.72;3.67;;;13.00;99.90;;;;;;5035582;28;20060;-72
2022/10/22 06:14:14;;;;;;;6.75;3.47;;;13.00;99.90;;;;;;5051649;28;20245;-71
2022/10/22 06:16:42;;;;;;;6.18;3.25;;;13.00;99.90;;;;;;5050370;28;20574;-72
2022/10/22 06:19:11;;;;;;;5.57;3.20;;;13.00;99.90;;;;;;5058478;28;20110;-71
2022/10/22 06:21:39;;;;;;;5.05;2.97;;;13.10;99.90;;;;;;5048990;28;20113;-73
2022/10/22 06:24:08;;;;;;;7.03;3.50;;;13.10;99.90;;;;;;5047459;28;20124;-71
2022/10/22 06:26:35;;;;;;;11.07;3.53;;;13.10;99.90;;;;;;5034372;28;20458;-71
2022/10/22 06:29:03;;;;;;;11.20;4.15;;;13.10;99.90;;;;;;5052224;28;20486;-72
2022/10/22 06:31:35;;;;;;;10.25;4.68;;;13.20;99.90;;;;;;5046491;28;20064;-71
2022/10/22 06:34:09;;;;;;;8.90;4.22;;;13.20;99.90;;;;;;5067284;28;20048;-72
2022/10/22 06:36:37;;;;;;;10.48;3.28;;;13.20;99.90;;;;;;5043826;28;20037;-72
2022/10/22 06:39:04;;;;;;;7.00;3.42;;;13.20;99.90;;;;;;5014333;28;20405;-72
2022/10/22 06:41:32;;;;;;;7.97;3.45;;;13.20;99.90;;;;;;5030464;28;20417;-72
2022/10/22 06:43:59;;;;;;;7.95;4.03;;;13.30;99.90;;;;;;5042567;28;20490;-72
2022/10/22 06:46:27;;;;;;;9.10;3.35;;;13.30;99.90;;;;;;5051537;28;20041;-71
2022/10/22 06:49:01;;;;;;;8.10;3.63;;;13.40;99.90;;;;;;5030817;28;20041;-71
2022/10/22 06:51:28;;;;;;;10.43;5.05;;;13.40;99.90;;;;;;5041997;28;20525;-71
2022/10/22 06:53:57;;;;;;;9.13;4.78;;;13.50;99.90;;;;;;5057117;28;20099;-72
2022/10/22 06:56:26;;;;;;;9.57;5.05;;;13.50;99.90;;;;;;5050603;28;20495;-73
2022/10/22 06:58:55;;;;;;;11.00;5.15;;;13.60;99.90;;;;;;5045237;28;20053;-71
2022/10/22 07:01:31;;;;;;;8.25;4.05;;;13.70;99.90;;;;;;5046761;28;20049;-71
2022/10/22 07:03:59;;;;;;;8.05;3.45;;;13.70;99.90;;;;;;5032690;28;20192;-72
2022/10/22 07:06:27;;;;;;;7.07;2.72;;;13.80;99.90;;;;;;5050261;28;20040;-72
2022/10/22 07:08:57;;;;;;;6.35;2.55;;;13.80;99.90;;;;;;5030400;28;20132;-71
2022/10/22 07:11:31;;;;;;;6.70;3.30;;;13.80;99.90;;;;;;5050289;28;20048;-71
2022/10/22 07:13:59;;;;;;;7.05;3.00;;;13.80;99.90;;;;;;5049870;28;20048;-72
2022/10/22 07:16:26;;;;;;;4.55;2.65;;;13.90;99.90;;;;;;5048635;28;20420;-71
2022/10/22 07:19:01;;;;;;;3.70;2.00;;;13.80;99.90;;;;;;5031721;28;20523;-72
2022/10/22 07:21:29;;;;;;;6.63;2.70;;;13.80;99.90;;;;;;5048516;28;20041;-71
2022/10/22 07:23:58;;;;;;;5.75;2.65;;;13.90;99.90;;;;;;5041132;28;20037;-71
2022/10/22 07:26:29;;;;;;;4.80;2.47;;;13.90;99.90;;;;;;5048785;28;20095;-72
2022/10/22 07:28:58;;;;;;;5.80;2.20;;;14.00;99.90;;;;;;5038701;28;20138;-73
2022/10/22 07:31:27;;;;;;;5.47;2.75;;;14.00;99.90;;;;;;5036811;28;20193;-69
2022/10/22 07:33:54;;;;;;;7.00;3.00;;;14.10;99.90;;;;;;5033078;28;20065;-71
2022/10/22 07:36:22;;;;;;;18.88;9.65;;;14.20;99.90;;;;;;5043752;28;20060;-71
2022/10/22 07:38:54;;;;;;;10.85;4.57;;;14.30;99.90;;;;;;5045186;28;20045;-71
2022/10/22 07:41:22;;;;;;;8.98;3.90;;;14.40;99.90;;;;;;5048081;28;20053;-71
2022/10/22 07:43:49;;;;;;;7.10;3.70;;;14.50;99.90;;;;;;5040948;28;20045;-71
2022/10/22 07:46:17;;;;;;;7.70;2.85;;;14.60;99.90;;;;;;5046285;28;20059;-71
2022/10/22 07:48:45;;;;;;;4.93;2.75;;;14.60;99.90;;;;;;5042432;28;20071;-73
2022/10/22 07:51:14;;;;;;;4.22;2.42;;;14.70;99.90;;;;;;5048551;28;20055;-72
2022/10/22 07:53:42;;;;;;;6.75;3.00;;;14.80;99.90;;;;;;5036561;28;20045;-71
2022/10/22 07:56:09;;;;;;;6.22;2.88;;;15.00;99.90;;;;;;5037487;28;20053;-72
2022/10/22 07:58:37;;;;;;;8.95;2.80;;;15.10;99.90;;;;;;5042441;28;20510;-70
2022/10/22 08:01:04;;;;;;;6.28;2.88;;;15.10;99.90;;;;;;5036739;28;20038;-70
2022/10/22 08:03:32;;;;;;;8.70;3.40;;;15.10;99.90;;;;;;5021529;28;20132;-70
2022/10/22 08:06:00;;;;;;;6.25;3.10;;;15.10;99.90;;;;;;5046689;28;20155;-72
2022/10/22 08:08:28;;;;;;;5.97;2.78;;;15.20;99.90;;;;;;5042370;28;20052;-72
2022/10/22 08:10:59;;;;;;;5.85;2.50;;;15.30;99.90;;;;;;5047138;28;20040;-73
2022/10/22 08:13:29;;;;;;;5.25;2.60;;;15.20;99.90;;;;;;5043120;28;20041;-71
2022/10/22 08:15:58;;;;;;;5.68;2.35;;;15.00;99.90;;;;;;5048625;28;20041;-72
2022/10/22 08:18:26;;;;;;;7.63;2.42;;;15.10;99.90;;;;;;5046968;28;20124;-73
2022/10/22 08:20:54;;;;;;;6.22;2.15;;;15.10;99.90;;;;;;5036555;28;20447;-73
2022/10/22 08:23:21;;;;;;;6.45;2.40;;;15.10;99.90;;;;;;5047420;28;20039;-74
2022/10/22 08:25:53;;;;;;;;;;;15.20;99.90;;;;;;5030677;28;20061;-71
2022/10/22 08:28:20;;;;;;;5.00;2.30;;;15.20;99.90;;;;;;5048159;28;19920;-73
2022/10/22 08:30:48;;;;;;;4.40;2.35;;;15.30;99.90;;;;;;5039805;28;20082;-72
2022/10/22 08:33:16;;;;;;;5.50;2.50;;;15.30;99.90;;;;;;5042681;28;20052;-72
2022/10/22 08:35:50;;;;;;;5.85;2.45;;;15.40;99.90;;;;;;5047520;28;20767;-73
2022/10/22 08:38:18;;;;;;;9.00;2.28;;;15.50;99.90;;;;;;5038075;28;20068;-72
2022/10/22 08:40:55;;;;;;;4.95;2.35;;;15.70;99.90;;;;;;5036426;28;20045;-73
2022/10/22 08:43:28;;;;;;;8.77;3.08;;;15.80;99.90;;;;;;5029120;28;20052;-72
2022/10/22 08:46:31;;;;;;;5.78;2.70;;;15.80;99.90;;;;;;5050527;28;20045;-72
2022/10/22 08:49:08;;;;;;;6.68;2.35;;;15.90;99.90;;;;;;5025912;28;20049;-73
2022/10/22 08:51:39;;;;;;;3.70;1.70;;;16.00;99.90;;;;;;5034399;28;20037;-74
2022/10/22 08:54:12;;;;;;;5.03;1.90;;;15.90;99.90;;;;;;5045036;28;20106;-70
2022/10/22 08:56:46;;;;;;;5.78;1.80;;;16.00;99.90;;;;;;5045826;28;20041;-72
2022/10/22 08:59:22;;;;;;;7.15;2.17;;;15.90;99.90;;;;;;5041837;28;20122;-72
2022/10/22 09:01:52;;;;;;;7.82;2.25;;;16.00;99.90;;;;;;5037508;28;20045;-72
2022/10/22 09:04:27;;;;;;;4.38;2.00;;;16.20;99.90;;;;;;5017793;28;20053;-69
2022/10/22 09:06:57;;;;;;;2.65;1.50;;;16.20;99.90;;;;;;5048408;28;20132;-73
2022/10/22 09:09:41;;;;;;;4.43;2.03;;;16.30;99.90;;;;;;5038098;28;20052;-73
2022/10/22 09:12:15;;;;;;;3.45;1.88;;;16.20;99.90;;;;;;5040164;28;20045;-71
2022/10/22 09:14:46;;;;;;;7.63;1.90;;;16.30;99.90;;;;;;5047016;28;20045;-71
2022/10/22 09:17:24;;;;;;;3.45;2.00;;;16.20;99.90;;;;;;5034550;28;20049;-72
2022/10/22 09:20:15;;;;;;;5.13;1.73;;;16.40;99.90;;;;;;5036516;28;20057;-73
2022/10/22 09:23:06;;;;;;;3.22;1.60;;;16.60;99.90;;;;;;5043397;28;20067;-72
2022/10/22 09:25:36;;;;;;;3.43;1.40;;;16.70;99.90;;;;;;5052701;28;20041;-70
2022/10/22 09:28:03;;;;;;;5.47;1.80;;;17.00;99.90;;;;;;5049185;28;20049;-72
2022/10/22 09:30:34;;;;;;;6.00;2.17;;;17.00;99.90;;;;;;5042577;28;20099;-73
2022/10/22 09:33:24;;;;;;;2.40;1.50;;;17.20;99.90;;;;;;5044238;28;20423;-72
2022/10/22 09:35:54;;;;;;;6.30;1.63;;;17.20;99.90;;;;;;5045600;28;20487;-72
2022/10/22 09:38:28;;;;;;;2.60;1.60;;;17.30;99.90;;;;;;5041908;28;20476;-72
2022/10/22 09:40:57;;;;;;;4.60;1.60;;;17.50;99.90;;;;;;5039766;28;20040;-73
2022/10/22 09:43:25;;;;;;;6.32;1.40;;;17.30;99.90;;;;;;5069072;28;20047;-73
2022/10/22 09:45:58;;;;;;;2.75;1.40;;;17.30;99.90;;;;;;5052334;28;20503;-72
2022/10/22 09:48:51;;;;;;;5.03;1.70;;;17.20;99.90;;;;;;5061989;28;20182;-69
2022/10/22 09:51:24;;;;;;;4.32;1.67;;;17.00;99.90;;;;;;5053084;28;20424;-72
2022/10/22 09:53:57;;;;;;;3.30;1.50;;;16.90;99.90;;;;;;5040514;28;20056;-71
2022/10/22 09:56:27;;;;;;;3.30;1.55;;;16.80;99.90;;;;;;5050327;28;20032;-72
2022/10/22 09:58:56;;;;;;;2.45;1.60;;;16.80;99.90;;;;;;5044459;28;20056;-72
2022/10/22 10:01:30;;;;;;;3.08;1.75;;;16.80;99.90;;;;;;5028970;28;20438;-72
2022/10/22 10:04:12;;;;;;;3.38;1.60;;;16.80;99.90;;;;;;5046454;28;20090;-72
2022/10/22 10:06:42;;;;;;;3.90;1.65;;;17.00;99.90;;;;;;5049744;28;20064;-71
2022/10/22 10:09:16;;;;;;;2.85;1.40;;;17.20;99.90;;;;;;5048035;28;20364;-72
2022/10/22 10:12:30;;;;;;;4.53;1.70;;;17.30;99.90;;;;;;5043024;28;20095;-72
2022/10/22 10:15:07;;;;;;;2.30;1.50;;;17.60;99.90;;;;;;5027162;28;20057;-72
2022/10/22 10:17:44;;;;;;;5.47;1.40;;;17.90;99.90;;;;;;5046098;28;20495;-71
2022/10/22 10:20:33;;;;;;;5.68;1.40;;;18.00;99.90;;;;;;5043008;28;20526;-72
2022/10/22 10:23:25;;;;;;;4.28;1.50;;;18.40;99.90;;;;;;5044490;28;20041;-73
2022/10/22 10:26:05;;;;;;;3.38;1.50;;;18.30;99.90;;;;;;5045278;28;20415;-73
2022/10/22 10:29:01;;;;;;;3.47;1.70;;;18.80;99.90;;;;;;5045315;28;20597;-74
2022/10/22 10:31:55;;;;;;;4.30;2.10;;;18.80;99.90;;;;;;5049746;28;20048;-73
2022/10/22 10:34:35;;;;;;;3.78;2.08;;;18.90;99.90;;;;;;5078032;28;20056;-72
2022/10/22 10:37:15;;;;;;;3.28;1.60;;;19.10;99.90;;;;;;5026408;28;20052;-72
2022/10/22 10:39:51;;;;;;;4.38;1.90;;;18.90;99.90;;;;;;5037727;28;20052;-72
2022/10/22 10:42:39;;;;;;;4.53;1.90;;;19.10;99.90;;;;;;5047887;28;20380;-73
2022/10/22 10:45:24;;;;;;;3.53;1.80;;;19.00;99.90;;;;;;5047120;28;20106;-72
2022/10/22 10:48:04;;;;;;;2.17;1.60;;;18.60;99.90;;;;;;5038799;28;20099;-71
2022/10/22 10:50:53;;;;;;;4.07;1.70;;;18.80;99.90;;;;;;5050607;28;20483;-72
2022/10/22 10:53:58;;;;;;;3.67;1.80;;;19.30;99.90;;;;;;5029063;28;20423;-71
2022/10/22 10:56:45;;;;;;;3.40;1.90;;;19.80;99.90;;;;;;5049775;28;20045;-74
2022/10/22 10:59:31;;;;;;;6.30;1.80;;;20.10;99.90;;;;;;5047840;28;20052;-74
2022/10/22 11:02:19;;;;;;;3.75;1.90;;;20.20;99.90;;;;;;5044539;28;20056;-71
2022/10/22 11:04:58;;;;;;;3.97;2.13;;;20.00;99.90;;;;;;5031756;28;20140;-74
2022/10/22 11:07:33;;;;;;;3.33;1.67;;;20.10;99.90;;;;;;5049339;28;20041;-73
2022/10/22 11:10:20;;;;;;;6.30;1.90;;;19.70;99.90;;;;;;5064281;28;20415;-72
2022/10/22 11:12:52;;;;;;;3.20;1.90;;;19.20;99.90;;;;;;5046025;28;20037;-71
2022/10/22 11:15:34;;;;;;;3.00;1.90;;;19.00;99.90;;;;;;5045997;28;20045;-72
2022/10/22 11:18:27;;;;;;;3.78;1.90;;;19.10;99.90;;;;;;5074606;28;20045;-71
2022/10/22 11:21:38;;;;;;;4.53;2.05;;;19.20;99.90;;;;;;5044188;28;20044;-72
2022/10/22 11:24:19;;;;;;;3.00;1.83;;;19.60;99.90;;;;;;5035265;28;20045;-72
2022/10/22 11:26:57;;;;;;;5.07;1.90;;;19.90;99.90;;;;;;5051181;28;20041;-73
2022/10/22 11:29:30;;;;;;;4.78;1.90;;;19.60;99.90;;;;;;5048812;28;20044;-73
2022/10/22 11:32:01;;;;;;;3.60;1.83;;;19.40;99.90;;;;;;5040836;28;20141;-73
2022/10/22 11:34:43;;;;;;;4.22;1.85;;;19.50;99.90;;;;;;5049749;28;20159;-72
2022/10/22 11:37:12;;;;;;;5.28;2.10;;;19.30;99.90;;;;;;5040320;28;20052;-72
2022/10/22 11:39:52;;;;;;;3.33;1.83;;;19.10;99.90;;;;;;5045667;28;20041;-73
2022/10/22 11:42:22;;;;;;;3.35;2.13;;;19.00;99.90;;;;;;5048074;28;20045;-72
2022/10/22 11:45:27;;;;;;;3.83;2.15;;;18.80;99.90;;;;;;5042097;28;20562;-71
2022/10/22 11:48:09;;;;;;;4.25;2.03;;;18.60;99.90;;;;;;5042272;28;20446;-71
2022/10/22 11:50:59;;;;;;;4.45;1.65;;;18.40;99.90;;;;;;5037710;28;20057;-71
2022/10/22 11:53:37;;;;;;;6.35;2.00;;;18.20;99.90;;;;;;5047928;28;20095;-71
2022/10/22 11:56:11;;;;;;;4.32;1.95;;;18.70;99.90;;;;;;5047186;28;20047;-72
2022/10/22 11:58:42;;;;;;;3.15;2.17;;;19.40;99.90;;;;;;5047193;28;20507;-72
2022/10/22 12:01:09;;;;;;;5.85;2.10;;;20.20;99.90;;;;;;5029253;28;20488;-72
2022/10/22 12:03:39;;;;;;;3.20;1.98;;;20.60;99.90;;;;;;5042436;28;20516;-72
2022/10/22 12:06:13;;;;;;;4.25;2.15;;;21.30;99.90;;;;;;5047381;28;20040;-72
2022/10/22 12:08:45;;;;;;;5.07;1.90;;;21.50;99.90;;;;;;5034886;28;20563;-73
2022/10/22 12:11:46;;;;;;;4.72;2.00;;;21.70;99.90;;;;;;5036752;28;20045;-72
2022/10/22 12:14:28;;;;;;;3.92;2.25;;;22.60;99.90;;;;;;5044893;28;20049;-73
2022/10/22 12:16:57;;;;;;;;;;;23.30;99.90;;;;;;5048185;28;20490;-72
2022/10/22 12:19:30;;;;;;;2.50;2.00;;;22.50;99.90;;;;;;5038960;28;20378;-73
2022/10/22 12:22:12;;;;;;;4.05;2.08;;;22.20;99.90;;;;;;5044388;28;20057;-72
2022/10/22 12:24:41;;;;;;;;;;;22.60;99.90;;;;;;5049608;28;20045;-70
2022/10/22 12:27:38;;;;;;;3.70;2.67;;;25.20;99.90;;;;;;5046939;28;19940;-72
2022/10/22 12:30:22;;;;;;;5.88;2.72;;;27.30;99.90;;;;;;5049134;28;20072;-72
2022/10/22 12:32:59;;;;;;;3.72;3.40;;;28.90;99.90;;;;;;5049267;28;20128;-71
2022/10/22 12:35:32;;;;;;;4.32;3.40;;;29.70;99.90;;;;;;5025890;28;20442;-72
2022/10/22 12:38:01;;;;;;;5.70;3.90;;;30.90;99.90;;;;;;5058429;28;20519;-72
2022/10/22 12:40:33;;;;;;;4.00;3.60;;;30.90;99.90;;;;;;5046714;28;20040;-72
2022/10/22 12:43:15;;;;;;;6.55;3.90;;;28.90;99.90;;;;;;5046057;28;20056;-72
2022/10/22 12:45:46;;;;;;;7.97;4.22;;;27.10;99.90;;;;;;5056715;28;20067;-72
2022/10/22 12:48:22;;;;;;;5.10;3.67;;;25.10;99.90;;;;;;5049173;28;20053;-72
2022/10/22 12:50:53;;;;;;;6.93;3.80;;;23.50;99.90;;;;;;5044582;28;20132;-71
2022/10/22 12:53:44;;;;;;;9.70;3.80;;;22.80;99.90;;;;;;5046271;28;20049;-72
2022/10/22 12:56:20;;;;;;;6.55;4.20;;;21.40;99.90;;;;;;5043409;28;20115;-72
2022/10/22 12:59:01;;;;;;;5.55;3.85;;;20.80;99.90;;;;;;5042289;28;20411;-72
2022/10/22 13:01:35;;;;;;;5.72;3.95;;;20.10;99.90;;;;;;5036107;28;20103;-70
2022/10/22 13:04:15;;;;;;;5.20;3.53;;;19.80;99.90;;;;;;5038168;28;20041;-70
2022/10/22 13:06:45;;;;;;;4.75;3.45;;;19.50;99.90;;;;;;5045137;28;20041;-70
2022/10/22 13:09:22;;;;;;;5.82;3.53;;;20.20;99.90;;;;;;5062981;28;20057;-69
2022/10/22 13:12:06;;;;;;;5.80;3.50;;;20.50;99.90;;;;;;5030890;28;20099;-69
2022/10/22 13:14:36;;;;;;;4.03;3.30;;;21.60;99.90;;;;;;5031706;28;20140;-70
2022/10/22 13:17:06;;;;;;;4.17;3.40;;;23.60;99.90;;;;;;5035078;28;20061;-69